createdAt,value
2023-04-02T00:00:41.815Z,27.29
2023-04-02T00:01:41.827Z,27.02
2023-04-02T00:02:41.903Z,28.32
2023-04-02T00:03:41.972Z,26.02
2023-04-02T00:04:41.963Z,27.50
2023-04-02T00:05:41.993Z,26.06
2023-04-02T00:06:42.026Z,29.29
2023-04-02T00:07:42.075Z,25.71
2023-04-02T00:08:42.092Z,28.44
2023-04-02T00:09:42.116Z,26.03
2023-04-02T00:10:42.152Z,26.74
2023-04-02T00:11:42.206Z,28.73
2023-04-02T00:12:42.247Z,26.18
2023-04-02T00:13:42.263Z,27.32
2023-04-02T00:14:42.319Z,25.87
2023-04-02T00:15:42.310Z,26.63
2023-04-02T00:16:42.444Z,27.16
2023-04-02T00:17:42.428Z,27.04
2023-04-02T00:18:42.437Z,31.48
2023-04-02T00:19:42.467Z,25.00
2023-04-02T00:20:42.519Z,26.56
2023-04-02T00:21:42.552Z,26.16
2023-04-02T00:22:42.605Z,28.73
2023-04-02T00:23:42.632Z,27.63
2023-04-02T00:24:42.664Z,29.57
2023-04-02T00:25:42.728Z,28.25
2023-04-02T00:26:42.718Z,26.43
2023-04-02T00:27:42.793Z,29.56
2023-04-02T00:28:42.802Z,25.73
2023-04-02T00:29:42.846Z,25.38
2023-04-02T00:30:43.776Z,28.48
2023-04-02T00:31:42.944Z,28.09
2023-04-02T00:32:42.978Z,25.63
2023-04-02T00:33:42.984Z,29.97
2023-04-02T00:34:43.018Z,27.42
2023-04-02T00:35:43.077Z,26.69
2023-04-02T00:36:43.106Z,26.58
2023-04-02T00:37:43.172Z,26.92
2023-04-02T00:38:43.150Z,27.43
2023-04-02T00:39:43.197Z,29.73
2023-04-02T00:40:43.248Z,28.96
2023-04-02T00:41:43.297Z,28.72
2023-04-02T00:42:43.343Z,27.31
2023-04-02T00:43:43.356Z,28.03
2023-04-02T00:44:43.391Z,30.60
2023-04-02T00:45:43.461Z,27.62
2023-04-02T00:46:43.504Z,29.13
2023-04-02T00:47:43.529Z,28.47
2023-04-02T00:48:43.544Z,29.07
2023-04-02T00:49:43.574Z,31.21
2023-04-02T00:50:43.632Z,28.36
2023-04-02T00:51:43.622Z,31.24
2023-04-02T00:52:43.699Z,28.56
2023-04-02T00:53:43.718Z,29.32
2023-04-02T00:54:43.731Z,28.81
2023-04-02T00:55:43.805Z,27.21
2023-04-02T00:56:43.801Z,28.56
2023-04-02T00:57:44.280Z,27.59
2023-04-02T00:58:43.854Z,26.00
2023-04-02T00:59:43.928Z,29.22
2023-04-02T01:00:43.960Z,25.69
2023-04-02T01:01:44.012Z,29.73
2023-04-02T01:02:44.098Z,28.63
2023-04-02T01:03:44.129Z,27.56
2023-04-02T01:04:44.093Z,28.47
2023-04-02T01:05:44.108Z,26.00
2023-04-02T01:06:44.183Z,29.71
2023-04-02T01:07:44.153Z,26.74
2023-04-02T01:08:44.192Z,29.18
2023-04-02T01:09:44.255Z,27.48
2023-04-02T01:10:44.268Z,27.17
2023-04-02T01:11:44.330Z,27.28
2023-04-02T01:12:44.331Z,27.09
2023-04-02T01:13:44.339Z,27.01
2023-04-02T01:14:44.393Z,26.21
2023-04-02T01:15:44.449Z,27.15
2023-04-02T01:16:44.489Z,26.64
2023-04-02T01:17:44.570Z,26.66
2023-04-02T01:18:44.554Z,27.38
2023-04-02T01:19:44.582Z,26.94
2023-04-02T01:20:44.618Z,25.42
2023-04-02T01:21:44.659Z,27.07
2023-04-02T01:22:44.674Z,26.18
2023-04-02T01:23:44.700Z,27.45
2023-04-02T01:24:44.728Z,27.05
2023-04-02T01:25:44.784Z,27.77
2023-04-02T01:26:44.845Z,30.29
2023-04-02T01:27:45.236Z,26.40
2023-04-02T01:28:44.892Z,26.40
2023-04-02T01:29:44.952Z,25.72
2023-04-02T01:30:44.980Z,26.80
2023-04-02T01:31:45.167Z,28.36
2023-04-02T01:32:45.098Z,28.77
2023-04-02T01:33:45.074Z,27.69
2023-04-02T01:34:45.117Z,28.06
2023-04-02T01:35:45.158Z,29.96
2023-04-02T01:36:45.196Z,29.07
2023-04-02T01:37:45.249Z,29.91
2023-04-02T01:38:45.254Z,28.02
2023-04-02T01:39:45.338Z,28.43
2023-04-02T01:40:45.352Z,25.47
2023-04-02T01:41:45.399Z,25.51
2023-04-02T01:42:45.459Z,27.71
2023-04-02T01:43:45.450Z,29.34
2023-04-02T01:44:45.517Z,27.44
2023-04-02T01:45:45.538Z,27.07
2023-04-02T01:46:45.566Z,31.01
2023-04-02T01:47:45.674Z,27.14
2023-04-02T01:48:45.682Z,29.27
2023-04-02T01:49:45.714Z,26.19
2023-04-02T01:50:45.738Z,26.58
2023-04-02T01:51:45.794Z,26.49
2023-04-02T01:52:45.822Z,28.65
2023-04-02T01:53:45.848Z,29.31
2023-04-02T01:54:45.932Z,27.31
2023-04-02T01:55:45.947Z,26.99
2023-04-02T01:56:45.958Z,25.91
2023-04-02T01:57:46.011Z,28.22
2023-04-02T01:58:46.062Z,29.33
2023-04-02T01:59:46.096Z,28.62
2023-04-02T02:00:46.181Z,28.49
2023-04-02T02:01:46.194Z,27.49
2023-04-02T02:02:46.387Z,27.88
2023-04-02T02:03:46.280Z,27.76
2023-04-02T02:04:46.289Z,27.27
2023-04-02T02:05:46.391Z,27.44
2023-04-02T02:06:46.415Z,29.59
2023-04-02T02:07:46.425Z,27.57
2023-04-02T02:08:46.491Z,29.25
2023-04-02T02:09:46.501Z,28.75
2023-04-02T02:10:46.548Z,31.12
2023-04-02T02:11:46.619Z,27.89
2023-04-02T02:12:46.670Z,27.03
2023-04-02T02:13:46.665Z,27.78
2023-04-02T02:14:46.749Z,26.20
2023-04-02T02:15:46.745Z,28.93
2023-04-02T02:16:46.907Z,26.58
2023-04-02T02:17:46.874Z,30.59
2023-04-02T02:18:46.893Z,27.26
2023-04-02T02:19:46.934Z,26.16
2023-04-02T02:20:46.998Z,30.14
2023-04-02T02:21:47.029Z,26.55
2023-04-02T02:22:47.065Z,28.04
2023-04-02T02:23:47.113Z,27.78
2023-04-02T02:24:47.174Z,26.27
2023-04-02T02:25:47.238Z,28.12
2023-04-02T02:26:47.252Z,25.85
2023-04-02T02:27:47.292Z,25.95
2023-04-02T02:28:47.357Z,28.35
2023-04-02T02:29:47.368Z,26.93
2023-04-02T02:30:47.421Z,25.75
2023-04-02T02:31:47.504Z,28.27
2023-04-02T02:32:47.530Z,27.08
2023-04-02T02:33:47.544Z,26.50
2023-04-02T02:34:47.572Z,27.82
2023-04-02T02:35:47.665Z,27.26
2023-04-02T02:36:47.693Z,28.20
2023-04-02T02:37:47.734Z,28.86
2023-04-02T02:38:47.766Z,25.79
2023-04-02T02:39:47.810Z,25.87
2023-04-02T02:40:47.854Z,28.78
2023-04-02T02:41:47.876Z,29.73
2023-04-02T02:42:47.962Z,30.70
2023-04-02T02:43:47.959Z,26.45
2023-04-02T02:44:48.004Z,25.00
2023-04-02T02:45:48.112Z,26.53
2023-04-02T02:46:48.079Z,27.40
2023-04-02T02:47:48.195Z,28.51
2023-04-02T02:48:48.212Z,28.77
2023-04-02T02:49:48.335Z,27.10
2023-04-02T02:50:48.279Z,26.74
2023-04-02T02:51:48.318Z,25.43
2023-04-02T02:52:48.370Z,28.94
2023-04-02T02:53:48.386Z,28.26
2023-04-02T02:54:48.461Z,27.81
2023-04-02T02:55:48.478Z,27.62
2023-04-02T02:56:48.531Z,27.36
2023-04-02T02:57:48.539Z,27.86
2023-04-02T02:58:48.605Z,27.09
2023-04-02T02:59:48.640Z,29.26
2023-04-02T03:00:48.724Z,27.37
2023-04-02T03:01:48.764Z,28.28
2023-04-02T03:02:48.845Z,25.41
2023-04-02T03:03:48.912Z,26.45
2023-04-02T03:04:48.835Z,29.08
2023-04-02T03:05:48.897Z,27.73
2023-04-02T03:06:48.980Z,28.31
2023-04-02T03:07:48.999Z,30.07
2023-04-02T03:08:49.127Z,29.08
2023-04-02T03:09:49.086Z,33.31
2023-04-02T03:10:49.128Z,29.40
2023-04-02T03:11:49.172Z,25.77
2023-04-02T03:12:49.222Z,31.04
2023-04-02T03:13:49.257Z,28.72
2023-04-02T03:14:49.293Z,29.32
2023-04-02T03:15:49.442Z,28.59
2023-04-02T03:16:49.381Z,27.88
2023-04-02T03:17:49.431Z,29.12
2023-04-02T03:18:49.475Z,28.02
2023-04-02T03:19:49.542Z,28.19
2023-04-02T03:20:49.552Z,26.96
2023-04-02T03:21:49.602Z,28.59
2023-04-02T03:22:49.640Z,28.08
2023-04-02T03:23:49.700Z,30.83
2023-04-02T03:24:49.730Z,28.42
2023-04-02T03:25:49.784Z,30.06
2023-04-02T03:26:49.834Z,28.95
2023-04-02T03:27:49.882Z,29.06
2023-04-02T03:28:49.911Z,30.61
2023-04-02T03:29:49.951Z,29.34
2023-04-02T03:30:50.007Z,29.15
2023-04-02T03:31:50.068Z,28.28
2023-04-02T03:32:50.155Z,30.49
2023-04-02T03:33:50.138Z,31.32
2023-04-02T03:34:50.188Z,29.71
2023-04-02T03:35:50.283Z,28.69
2023-04-02T03:36:50.332Z,31.03
2023-04-02T03:37:50.327Z,29.34
2023-04-02T03:38:50.346Z,28.83
2023-04-02T03:39:50.406Z,27.20
2023-04-02T03:40:50.424Z,29.52
2023-04-02T03:41:50.499Z,31.37
2023-04-02T03:42:50.548Z,26.46
2023-04-02T03:43:50.567Z,29.65
2023-04-02T03:44:50.606Z,28.46
2023-04-02T03:45:50.674Z,28.22
2023-04-02T03:46:50.868Z,25.62
2023-04-02T03:47:50.811Z,29.25
2023-04-02T03:48:50.786Z,26.47
2023-04-02T03:49:50.826Z,28.66
2023-04-02T03:50:50.861Z,28.31
2023-04-02T03:51:51.799Z,25.95
2023-04-02T03:52:50.978Z,28.14
2023-04-02T03:53:50.982Z,28.13
2023-04-02T03:54:53.540Z,25.63
2023-04-02T03:55:51.048Z,33.31
2023-04-02T03:56:51.020Z,28.86
2023-04-02T03:57:51.023Z,27.88
2023-04-02T03:58:51.010Z,29.61
2023-04-02T03:59:50.989Z,30.12
2023-04-02T04:00:50.968Z,28.80
2023-04-02T04:01:51.009Z,31.34
2023-04-02T04:02:51.034Z,27.09
2023-04-02T04:03:51.031Z,27.19
2023-04-02T04:04:50.964Z,26.82
2023-04-02T04:05:50.975Z,29.48
2023-04-02T04:06:50.958Z,28.58
2023-04-02T04:07:50.970Z,26.76
2023-04-02T04:08:50.911Z,27.59
2023-04-02T04:09:50.909Z,28.20
2023-04-02T04:10:50.961Z,29.18
2023-04-02T04:11:50.902Z,25.96
2023-04-02T04:12:50.960Z,29.72
2023-04-02T04:13:50.885Z,27.15
2023-04-02T04:14:50.896Z,29.07
2023-04-02T04:15:50.898Z,27.06
2023-04-02T04:16:50.920Z,28.84
2023-04-02T04:17:50.980Z,27.35
2023-04-02T04:18:50.904Z,25.28
2023-04-02T04:19:50.874Z,29.62
2023-04-02T04:20:50.859Z,30.07
2023-04-02T04:21:50.852Z,26.81
2023-04-02T04:22:50.851Z,26.84
2023-04-02T04:23:50.858Z,26.17
2023-04-02T04:24:50.816Z,26.15
2023-04-02T04:25:50.838Z,28.44
2023-04-02T04:26:50.810Z,29.62
2023-04-02T04:27:50.811Z,27.70
2023-04-02T04:28:50.809Z,29.93
2023-04-02T04:29:50.806Z,27.15
2023-04-02T04:30:50.824Z,27.96
2023-04-02T04:31:50.826Z,27.35
2023-04-02T04:32:50.777Z,28.11
2023-04-02T04:33:50.775Z,28.10
2023-04-02T04:34:50.749Z,28.28
2023-04-02T04:35:50.800Z,28.35
2023-04-02T04:36:50.765Z,28.15
2023-04-02T04:37:50.760Z,28.02
2023-04-02T04:38:50.791Z,27.36
2023-04-02T04:39:50.844Z,27.14
2023-04-02T04:40:50.845Z,27.51
2023-04-02T04:41:50.962Z,31.53
2023-04-02T04:42:50.936Z,29.87
2023-04-02T04:43:50.972Z,27.45
2023-04-02T04:44:51.026Z,28.50
2023-04-02T04:45:51.141Z,27.05
2023-04-02T04:46:51.133Z,25.85
2023-04-02T04:47:51.155Z,28.11
2023-04-02T04:48:51.221Z,28.79
2023-04-02T04:49:51.253Z,26.86
2023-04-02T04:50:51.304Z,26.13
2023-04-02T04:51:51.338Z,27.41
2023-04-02T04:52:51.386Z,26.14
2023-04-02T04:53:51.443Z,28.73
2023-04-02T04:54:51.492Z,28.91
2023-04-02T04:55:51.496Z,25.34
2023-04-02T04:56:51.604Z,27.43
2023-04-02T04:57:51.588Z,28.27
2023-04-02T04:58:51.662Z,28.81
2023-04-02T04:59:51.683Z,26.83
2023-04-02T05:00:51.766Z,27.80
2023-04-02T05:01:51.838Z,27.80
2023-04-02T05:02:51.868Z,27.33
2023-04-02T05:03:51.875Z,29.99
2023-04-02T05:04:51.996Z,28.21
2023-04-02T05:05:51.936Z,29.57
2023-04-02T05:06:51.997Z,25.00
2023-04-02T05:07:52.019Z,27.43
2023-04-02T05:08:52.049Z,28.98
2023-04-02T05:09:52.104Z,26.80
2023-04-02T05:10:52.139Z,28.84
2023-04-02T05:11:52.184Z,28.41
2023-04-02T05:12:52.206Z,25.75
2023-04-02T05:13:52.287Z,28.41
2023-04-02T05:14:52.321Z,26.50
2023-04-02T05:15:52.391Z,27.35
2023-04-02T05:16:52.414Z,28.03
2023-04-02T05:17:52.479Z,27.58
2023-04-02T05:18:52.466Z,28.00
2023-04-02T05:19:52.520Z,27.36
2023-04-02T05:20:52.568Z,30.41
2023-04-02T05:21:52.611Z,31.12
2023-04-02T05:22:52.673Z,28.34
2023-04-02T05:23:52.730Z,29.29
2023-04-02T05:24:52.748Z,26.55
2023-04-02T05:25:52.806Z,29.64
2023-04-02T05:26:52.850Z,30.51
2023-04-02T05:27:52.877Z,25.43
2023-04-02T05:28:52.917Z,30.02
2023-04-02T05:29:52.955Z,27.42
2023-04-02T05:30:53.068Z,28.63
2023-04-02T05:31:53.030Z,26.59
2023-04-02T05:32:53.122Z,26.42
2023-04-02T05:33:53.129Z,25.00
2023-04-02T05:34:53.188Z,28.39
2023-04-02T05:35:53.228Z,30.58
2023-04-02T05:36:53.251Z,31.47
2023-04-02T05:37:53.304Z,28.61
2023-04-02T05:38:53.321Z,27.44
2023-04-02T05:39:53.376Z,29.31
2023-04-02T05:40:53.446Z,28.64
2023-04-02T05:41:53.487Z,30.04
2023-04-02T05:42:53.509Z,27.88
2023-04-02T05:43:53.541Z,32.95
2023-04-02T05:44:53.570Z,27.77
2023-04-02T05:45:53.611Z,28.43
2023-04-02T05:46:53.725Z,29.26
2023-04-02T05:47:53.757Z,25.57
2023-04-02T05:48:53.774Z,27.73
2023-04-02T05:49:53.790Z,30.63
2023-04-02T05:50:53.823Z,29.37
2023-04-02T05:51:54.956Z,28.26
2023-04-02T05:52:53.904Z,30.18
2023-04-02T05:53:53.964Z,28.61
2023-04-02T05:54:54.003Z,26.11
2023-04-02T05:55:54.060Z,27.94
2023-04-02T05:56:54.152Z,28.92
2023-04-02T05:58:13.592Z,27.93
2023-04-02T05:58:55.257Z,28.24
2023-04-02T05:59:54.096Z,28.43
2023-04-02T06:00:54.115Z,28.38
2023-04-02T06:01:54.157Z,28.41
2023-04-02T06:02:54.116Z,28.76
2023-04-02T06:03:54.170Z,28.61
2023-04-02T06:04:54.069Z,27.59
2023-04-02T06:05:54.041Z,28.92
2023-04-02T06:06:54.040Z,28.38
2023-04-02T06:07:54.032Z,28.44
2023-04-02T06:08:54.032Z,30.54
2023-04-02T06:09:54.034Z,28.42
2023-04-02T06:10:54.097Z,29.48
2023-04-02T06:11:54.139Z,25.96
2023-04-02T06:12:54.140Z,31.01
2023-04-02T06:13:54.193Z,30.78
2023-04-02T06:14:54.223Z,31.74
2023-04-02T06:15:54.268Z,27.26
2023-04-02T06:16:54.325Z,29.56
2023-04-02T06:17:54.374Z,27.44
2023-04-02T06:18:54.416Z,28.25
2023-04-02T06:19:54.432Z,28.46
2023-04-02T06:20:54.479Z,27.95
2023-04-02T06:21:54.532Z,31.73
2023-04-02T06:22:54.591Z,27.13
2023-04-02T06:23:54.624Z,27.86
2023-04-02T06:24:54.641Z,28.82
2023-04-02T06:25:54.933Z,27.38
2023-04-02T06:26:54.763Z,27.99
2023-04-02T06:27:54.784Z,26.19
2023-04-02T06:28:54.860Z,28.05
2023-04-02T06:29:54.833Z,28.90
2023-04-02T06:30:54.991Z,28.40
2023-04-02T06:31:54.930Z,29.34
2023-04-02T06:32:55.009Z,28.76
2023-04-02T06:33:55.033Z,27.79
2023-04-02T06:34:55.091Z,28.31
2023-04-02T06:35:55.130Z,30.34
2023-04-02T06:36:55.156Z,29.54
2023-04-02T06:37:55.161Z,29.26
2023-04-02T06:38:55.235Z,28.74
2023-04-02T06:39:55.300Z,28.41
2023-04-02T06:40:58.252Z,29.85
2023-04-02T06:41:55.315Z,34.16
2023-04-02T06:42:55.312Z,30.34
2023-04-02T06:43:55.268Z,31.02
2023-04-02T06:44:55.263Z,29.81
2023-04-02T06:45:55.378Z,30.75
2023-04-02T06:46:55.251Z,26.02
2023-04-02T06:47:55.282Z,29.02
2023-04-02T06:48:55.236Z,36.71
2023-04-02T06:49:55.255Z,35.43
2023-04-02T06:50:55.226Z,27.32
2023-04-02T06:51:55.228Z,25.47
2023-04-02T06:52:55.256Z,28.70
2023-04-02T06:53:55.267Z,29.78
2023-04-02T06:54:55.239Z,31.82
2023-04-02T06:55:55.217Z,31.11
2023-04-02T06:56:55.191Z,27.87
2023-04-02T06:57:55.237Z,27.55
2023-04-02T06:58:55.197Z,25.71
2023-04-02T06:59:55.188Z,27.23
2023-04-02T07:00:55.201Z,28.84
2023-04-02T07:01:55.290Z,27.59
2023-04-02T07:02:55.246Z,28.57
2023-04-02T07:03:55.153Z,29.16
2023-04-02T07:04:55.203Z,31.37
2023-04-02T07:05:55.105Z,31.47
2023-04-02T07:06:55.121Z,30.62
2023-04-02T07:07:55.124Z,30.58
2023-04-02T07:08:55.125Z,33.26
2023-04-02T07:09:55.146Z,29.56
2023-04-02T07:10:55.102Z,36.11
2023-04-02T07:11:55.091Z,34.25
2023-04-02T07:12:55.084Z,36.34
2023-04-02T07:13:55.117Z,35.90
2023-04-02T07:14:55.085Z,35.04
2023-04-02T07:15:55.116Z,34.90
2023-04-02T07:16:55.037Z,36.24
2023-04-02T07:17:55.091Z,38.38
2023-04-02T07:18:55.046Z,39.35
2023-04-02T07:19:55.055Z,36.18
2023-04-02T07:20:55.057Z,40.13
2023-04-02T07:21:55.031Z,38.55
2023-04-02T07:22:55.075Z,39.70
2023-04-02T07:23:55.087Z,40.33
2023-04-02T07:24:55.113Z,40.91
2023-04-02T07:25:55.137Z,42.27
2023-04-02T07:26:55.168Z,42.84
2023-04-02T07:27:55.174Z,43.50
2023-04-02T07:28:55.207Z,43.51
2023-04-02T07:29:55.264Z,43.12
2023-04-02T07:30:55.276Z,43.91
2023-04-02T07:31:55.374Z,43.58
2023-04-02T07:32:55.368Z,44.92
2023-04-02T07:33:55.362Z,46.42
2023-04-02T07:34:55.423Z,48.84
2023-04-02T07:35:55.478Z,45.89
2023-04-02T07:36:55.445Z,45.49
2023-04-02T07:37:55.440Z,43.59
2023-04-02T07:38:55.512Z,44.56
2023-04-02T07:39:55.524Z,43.18
2023-04-02T07:40:55.506Z,43.51
2023-04-02T07:41:55.613Z,42.13
2023-04-02T07:42:55.587Z,43.74
2023-04-02T07:43:55.623Z,41.47
2023-04-02T07:44:55.602Z,42.51
2023-04-02T07:45:55.625Z,41.24
2023-04-02T07:46:55.677Z,42.43
2023-04-02T07:47:55.676Z,43.38
2023-04-02T07:48:55.733Z,40.51
2023-04-02T07:49:55.741Z,39.18
2023-04-02T07:50:55.707Z,41.52
2023-04-02T07:51:55.707Z,41.57
2023-04-02T07:52:55.736Z,38.83
2023-04-02T07:53:55.982Z,42.52
2023-04-02T07:54:55.761Z,41.08
2023-04-02T07:55:55.759Z,42.73
2023-04-02T07:56:55.813Z,41.40
2023-04-02T07:57:55.783Z,42.88
2023-04-02T07:58:55.804Z,41.13
2023-04-02T07:59:55.792Z,42.94
2023-04-02T08:00:55.842Z,40.40
2023-04-02T08:01:55.867Z,42.20
2023-04-02T08:02:55.887Z,43.40
2023-04-02T08:03:55.875Z,41.00
2023-04-02T08:04:55.832Z,43.58
2023-04-02T08:05:55.852Z,42.01
2023-04-02T08:06:55.892Z,42.66
2023-04-02T08:07:55.854Z,35.05
2023-04-02T08:08:55.898Z,42.00
2023-04-02T08:09:55.857Z,38.75
2023-04-02T08:10:55.901Z,41.48
2023-04-02T08:11:55.882Z,40.28
2023-04-02T08:12:55.877Z,39.79
2023-04-02T08:13:55.898Z,42.48
2023-04-02T08:14:55.870Z,37.90
2023-04-02T08:15:55.904Z,41.80
2023-04-02T08:16:56.153Z,39.85
2023-04-02T08:17:55.917Z,39.34
2023-04-02T08:18:55.917Z,41.88
2023-04-02T08:19:55.854Z,38.69
2023-04-02T08:20:55.891Z,41.25
2023-04-02T08:21:55.869Z,42.09
2023-04-02T08:22:55.867Z,40.73
2023-04-02T08:23:55.918Z,42.95
2023-04-02T08:24:55.898Z,41.32
2023-04-02T08:25:55.918Z,37.46
2023-04-02T08:26:55.903Z,41.81
2023-04-02T08:27:55.894Z,40.36
2023-04-02T08:28:55.902Z,36.10
2023-04-02T08:29:55.933Z,43.94
2023-04-02T08:30:55.968Z,32.87
2023-04-02T08:31:55.933Z,40.90
2023-04-02T08:32:55.951Z,43.50
2023-04-02T08:33:55.882Z,37.58
2023-04-02T08:34:55.861Z,40.53
2023-04-02T08:35:55.905Z,38.78
2023-04-02T08:36:55.889Z,37.14
2023-04-02T08:37:55.918Z,38.06
2023-04-02T08:38:55.957Z,32.40
2023-04-02T08:39:55.947Z,40.95
2023-04-02T08:40:55.934Z,30.38
2023-04-02T08:41:55.972Z,39.56
2023-04-02T08:42:55.977Z,43.60
2023-04-02T08:43:55.986Z,40.73
2023-04-02T08:44:56.002Z,43.18
2023-04-02T08:45:56.061Z,38.74
2023-04-02T08:46:56.057Z,43.67
2023-04-02T08:47:56.259Z,43.88
2023-04-02T08:48:56.031Z,40.64
2023-04-02T08:49:56.074Z,42.89
2023-04-02T08:50:56.036Z,42.97
2023-04-02T08:51:56.054Z,43.65
2023-04-02T08:52:56.131Z,38.39
2023-04-02T08:53:56.166Z,40.09
2023-04-02T08:54:56.215Z,40.51
2023-04-02T08:55:56.374Z,41.28
2023-04-02T08:56:56.339Z,45.89
2023-04-02T08:57:56.376Z,37.19
2023-04-02T08:58:56.471Z,42.04
2023-04-02T08:59:56.437Z,31.53
2023-04-02T09:00:56.470Z,44.08
2023-04-02T09:01:56.686Z,40.38
2023-04-02T09:02:56.566Z,39.12
2023-04-02T09:03:56.560Z,41.46
2023-04-02T09:04:57.477Z,45.90
2023-04-02T09:05:56.639Z,35.64
2023-04-02T09:06:56.718Z,39.48
2023-04-02T09:07:56.766Z,35.25
2023-04-02T09:08:56.812Z,42.00
2023-04-02T09:09:56.850Z,39.15
2023-04-02T09:10:56.925Z,30.93
2023-04-02T09:11:57.005Z,32.24
2023-04-02T09:12:57.059Z,42.31
2023-04-02T09:13:57.144Z,42.05
2023-04-02T09:14:57.229Z,36.32
2023-04-02T09:15:57.264Z,44.60
2023-04-02T09:16:57.286Z,36.71
2023-04-02T09:17:59.488Z,35.61
2023-04-02T09:18:57.461Z,35.85
2023-04-02T09:19:57.478Z,31.27
2023-04-02T09:20:57.532Z,41.70
2023-04-02T09:21:57.597Z,35.35
2023-04-02T09:22:57.656Z,37.15
2023-04-02T09:23:57.703Z,43.72
2023-04-02T09:24:57.757Z,39.33
2023-04-02T09:26:04.224Z,42.98
2023-04-02T09:26:58.777Z,39.94
2023-04-02T09:27:57.827Z,39.89
2023-04-02T09:28:57.784Z,43.19
2023-04-02T09:29:57.734Z,39.76
2023-04-02T09:30:57.766Z,37.45
2023-04-02T09:31:57.827Z,42.30
2023-04-02T09:32:57.751Z,38.17
2023-04-02T09:33:57.762Z,41.80
2023-04-02T09:34:57.723Z,36.49
2023-04-02T09:35:58.547Z,38.84
2023-04-02T09:36:57.807Z,39.85
2023-04-02T09:37:57.828Z,38.32
2023-04-02T09:38:57.908Z,36.58
2023-04-02T09:39:57.934Z,39.39
2023-04-02T09:40:57.961Z,41.50
2023-04-02T09:42:05.478Z,32.93
2023-04-02T09:42:59.042Z,33.51
2023-04-02T09:43:58.003Z,33.73
2023-04-02T09:44:58.008Z,34.65
2023-04-02T09:45:57.978Z,38.03
2023-04-02T09:46:58.093Z,44.36
2023-04-02T09:47:58.076Z,36.45
2023-04-02T09:48:57.984Z,36.40
2023-04-02T09:49:57.976Z,41.65
2023-04-02T09:50:57.987Z,41.29
2023-04-02T09:51:57.949Z,41.66
2023-04-02T09:52:58.005Z,37.55
2023-04-02T09:53:58.002Z,46.00
2023-04-02T09:54:58.040Z,39.14
2023-04-02T09:55:58.103Z,36.36
2023-04-02T09:56:58.182Z,41.33
2023-04-02T09:58:00.364Z,33.75
2023-04-02T09:58:58.163Z,40.99
2023-04-02T09:59:58.144Z,44.47
2023-04-02T10:00:58.193Z,41.82
2023-04-02T10:01:58.112Z,44.11
2023-04-02T10:02:58.224Z,43.18
2023-04-02T10:03:58.182Z,46.75
2023-04-02T10:04:58.119Z,44.36
2023-04-02T10:05:58.107Z,37.63
2023-04-02T10:06:58.105Z,38.11
2023-04-02T10:07:58.128Z,38.45
2023-04-02T10:08:58.097Z,40.51
2023-04-02T10:09:58.108Z,38.06
2023-04-02T10:10:58.070Z,40.27
2023-04-02T10:11:58.121Z,40.81
2023-04-02T10:12:58.056Z,42.78
2023-04-02T10:13:58.081Z,43.71
2023-04-02T10:14:58.078Z,41.73
2023-04-02T10:15:58.045Z,41.99
2023-04-02T10:16:58.105Z,40.00
2023-04-02T10:17:58.096Z,35.53
2023-04-02T10:18:58.083Z,34.31
2023-04-02T10:19:58.022Z,44.21
2023-04-02T10:20:58.012Z,41.19
2023-04-02T10:21:58.018Z,43.71
2023-04-02T10:22:58.010Z,38.23
2023-04-02T10:23:58.033Z,42.58
2023-04-02T10:24:58.006Z,40.82
2023-04-02T10:25:58.004Z,36.70
2023-04-02T10:26:57.982Z,36.73
2023-04-02T10:27:58.010Z,44.90
2023-04-02T10:28:57.997Z,40.91
2023-04-02T10:29:58.001Z,44.85
2023-04-02T10:30:58.082Z,38.53
2023-04-02T10:31:57.995Z,45.81
2023-04-02T10:32:57.994Z,37.37
2023-04-02T10:33:57.967Z,35.84
2023-04-02T10:34:57.942Z,43.22
2023-04-02T10:35:58.024Z,38.51
2023-04-02T10:36:57.919Z,37.98
2023-04-02T10:37:57.919Z,37.97
2023-04-02T10:38:57.945Z,38.30
2023-04-02T10:39:57.912Z,39.71
2023-04-02T10:40:57.948Z,39.63
2023-04-02T10:41:57.886Z,38.33
2023-04-02T10:42:57.862Z,38.02
2023-04-02T10:44:01.171Z,42.54
2023-04-02T10:44:58.885Z,42.55
2023-04-02T10:45:57.900Z,42.82
2023-04-02T10:46:57.887Z,42.97
2023-04-02T10:47:58.000Z,39.99
2023-04-02T10:48:57.859Z,40.36
2023-04-02T10:49:57.869Z,39.39
2023-04-02T10:50:57.879Z,36.40
2023-04-02T10:51:57.879Z,36.79
2023-04-02T10:52:57.840Z,44.81
2023-04-02T10:53:57.851Z,39.02
2023-04-02T10:54:57.853Z,42.01
2023-04-02T10:55:57.850Z,42.39
2023-04-02T10:56:57.824Z,38.49
2023-04-02T10:57:57.816Z,45.98
2023-04-02T10:58:57.933Z,38.70
2023-04-02T10:59:57.891Z,41.94
2023-04-02T11:00:57.951Z,38.83
2023-04-02T11:01:58.121Z,42.91
2023-04-02T11:02:58.106Z,37.95
2023-04-02T11:03:58.386Z,45.96
2023-04-02T11:04:59.883Z,41.45
2023-04-02T11:05:58.068Z,47.77
2023-04-02T11:07:07.188Z,39.48
2023-04-02T11:07:59.030Z,39.98
2023-04-02T11:08:58.054Z,40.61
2023-04-02T11:09:58.084Z,41.62
2023-04-02T11:10:57.991Z,44.72
2023-04-02T11:11:58.009Z,40.61
2023-04-02T11:12:57.991Z,45.88
2023-04-02T11:13:58.035Z,41.77
2023-04-02T11:14:57.981Z,41.60
2023-04-02T11:15:57.986Z,42.12
2023-04-02T11:16:57.996Z,45.33
2023-04-02T11:17:58.015Z,37.72
2023-04-02T11:18:57.958Z,39.43
2023-04-02T11:19:57.949Z,39.42
2023-04-02T11:20:57.972Z,40.47
2023-04-02T11:22:00.025Z,38.50
2023-04-02T11:22:58.039Z,42.34
2023-04-02T11:23:58.018Z,43.44
2023-04-02T11:24:58.075Z,40.12
2023-04-02T11:25:57.981Z,42.14
2023-04-02T11:26:58.026Z,45.62
2023-04-02T11:27:57.947Z,44.44
2023-04-02T11:28:57.956Z,37.04
2023-04-02T11:29:57.973Z,40.09
2023-04-02T11:30:57.943Z,41.99
2023-04-02T11:31:57.956Z,39.75
2023-04-02T11:32:57.949Z,37.86
2023-04-02T11:33:57.897Z,35.19
2023-04-02T11:35:06.698Z,41.54
2023-04-02T11:35:58.940Z,41.94
2023-04-02T11:36:57.907Z,43.08
2023-04-02T11:37:57.933Z,42.38
2023-04-02T11:39:07.343Z,39.50
2023-04-02T11:39:58.896Z,41.83
2023-04-02T11:40:57.918Z,41.82
2023-04-02T11:41:57.841Z,42.30
2023-04-02T11:42:57.849Z,42.31
2023-04-02T11:43:57.856Z,41.51
2023-04-02T11:44:57.838Z,44.26
2023-04-02T11:45:58.090Z,37.99
2023-04-02T11:46:57.955Z,39.56
2023-04-02T11:47:57.920Z,41.08
2023-04-02T11:48:57.833Z,41.48
2023-04-02T11:49:57.868Z,39.71
2023-04-02T11:50:57.804Z,41.07
2023-04-02T11:52:10.925Z,44.67
2023-04-02T11:52:58.809Z,44.77
2023-04-02T11:53:57.802Z,44.96
2023-04-02T11:54:57.780Z,41.19
2023-04-02T11:55:57.761Z,42.39
2023-04-02T11:56:57.819Z,36.54
2023-04-02T11:57:57.770Z,46.47
2023-04-02T11:58:57.762Z,39.10
2023-04-02T11:59:57.760Z,44.35
2023-04-02T12:00:57.744Z,34.84
2023-04-02T12:01:57.788Z,37.80
2023-04-02T12:02:57.708Z,40.53
2023-04-02T12:03:57.740Z,38.96
2023-04-02T12:04:57.779Z,38.54
2023-04-02T12:05:57.791Z,42.62
2023-04-02T12:06:57.815Z,37.34
2023-04-02T12:07:58.458Z,40.21
2023-04-02T12:08:58.388Z,42.75
2023-04-02T12:09:57.977Z,39.14
2023-04-02T12:10:58.030Z,41.01
2023-04-02T12:11:57.995Z,40.60
2023-04-02T12:12:58.048Z,38.34
2023-04-02T12:13:58.106Z,39.29
2023-04-02T12:14:58.124Z,42.15
2023-04-02T12:15:58.183Z,39.78
2023-04-02T12:16:58.252Z,40.51
2023-04-02T12:17:58.289Z,41.05
2023-04-02T12:18:58.272Z,37.05
2023-04-02T12:19:58.321Z,39.29
2023-04-02T12:20:58.395Z,36.19
2023-04-02T12:21:58.418Z,45.84
2023-04-02T12:22:58.454Z,38.74
2023-04-02T12:23:58.524Z,36.64
2023-04-02T12:24:58.584Z,37.07
2023-04-02T12:25:58.617Z,38.79
2023-04-02T12:26:58.635Z,47.03
2023-04-02T12:27:58.680Z,42.01
2023-04-02T12:28:58.720Z,38.70
2023-04-02T12:29:58.755Z,45.34
2023-04-02T12:30:58.794Z,33.32
2023-04-02T12:31:58.817Z,48.70
2023-04-02T12:32:58.941Z,35.20
2023-04-02T12:33:58.887Z,37.51
2023-04-02T12:34:59.013Z,35.89
2023-04-02T12:35:59.050Z,41.67
2023-04-02T12:36:59.043Z,39.24
2023-04-02T12:37:59.043Z,40.66
2023-04-02T12:38:59.120Z,36.92
2023-04-02T12:39:59.189Z,42.13
2023-04-02T12:40:59.198Z,40.91
2023-04-02T12:41:59.245Z,34.50
2023-04-02T12:42:59.288Z,40.40
2023-04-02T12:43:59.361Z,38.78
2023-04-02T12:44:59.455Z,43.37
2023-04-02T12:45:59.457Z,41.28
2023-04-02T12:46:59.506Z,34.82
2023-04-02T12:47:59.573Z,39.68
2023-04-02T12:48:59.537Z,37.55
2023-04-02T12:49:59.608Z,40.81
2023-04-02T12:50:59.666Z,41.68
2023-04-02T12:51:59.690Z,43.10
2023-04-02T12:52:59.789Z,42.80